Time;durP1;ratioP1;P1;durP2;ratioP2;P2;SDS_P1;SDS_P2;PMS_P1;PMS_P2;Temp;Humidity;BMP_temperature;BMP_pressure;BME280_temperature;BME280_humidity;BME280_pressure;Samples;Min_cycle;Max_cycle;Signal;HPM_P1;HPM_P2
2024/01/20 00:00:14;;;;;;;51.10;29.02;;;;;;;3.33;58.90;102624.66;4940978;28;98650;-84
2024/01/20 00:02:57;;;;;;;51.25;31.00;;;;;;;3.31;58.87;102627.34;4951125;28;97035;-84
2024/01/20 00:05:28;;;;;;;53.00;31.45;;;;;;;3.30;58.94;102624.69;4954427;28;97628;-85
2024/01/20 00:08:15;;;;;;;48.08;29.40;;;;;;;3.27;59.02;102628.28;4935532;28;98459;-84
2024/01/20 00:10:45;;;;;;;51.25;30.40;;;;;;;3.28;59.01;102630.03;4971127;28;98073;-84
2024/01/20 00:13:12;;;;;;;53.22;29.20;;;;;;;3.26;58.88;102628.28;4955587;28;96926;-84
2024/01/20 00:15:39;;;;;;;52.63;29.55;;;;;;;3.25;58.88;102627.41;4946573;28;97219;-84
2024/01/20 00:18:07;;;;;;;54.85;31.33;;;;;;;3.24;58.86;102638.06;4946945;28;98175;-85
2024/01/20 00:20:34;;;;;;;52.00;30.13;;;;;;;3.23;58.93;102634.53;4947836;28;99347;-84
2024/01/20 00:23:01;;;;;;;53.55;32.38;;;;;;;3.22;58.96;102642.50;4967685;28;99225;-84
2024/01/20 00:25:32;;;;;;;54.67;29.92;;;;;;;3.18;58.89;102639.88;4931840;28;97334;-84
2024/01/20 00:28:03;;;;;;;58.38;32.92;;;;;;;3.19;58.99;102638.97;4961082;28;97697;-84
2024/01/20 00:30:30;;;;;;;55.60;31.27;;;;;;;3.19;59.05;102638.97;4950496;28;97843;-84
2024/01/20 00:32:58;;;;;;;52.88;30.65;;;;;;;3.20;59.10;102639.88;4959502;28;97093;-84
2024/01/20 00:35:24;;;;;;;58.97;32.55;;;;;;;3.22;59.15;102645.16;4947304;28;97363;-85
2024/01/20 00:37:51;;;;;;;59.00;32.67;;;;;;;3.22;58.92;102638.06;4942152;28;98283;-84
2024/01/20 00:40:18;;;;;;;58.05;31.25;;;;;;;3.19;58.92;102635.44;4940097;28;99884;-84
2024/01/20 00:42:44;;;;;;;53.53;30.10;;;;;;;3.17;59.00;102638.13;4942449;28;97497;-84
2024/01/20 00:45:11;;;;;;;56.08;31.30;;;;;;;3.17;58.93;102634.59;4951961;28;97223;-84
2024/01/20 00:47:39;;;;;;;52.63;30.80;;;;;;;3.19;59.11;102638.09;4931022;28;98432;-84
2024/01/20 00:50:06;;;;;;;58.00;32.50;;;;;;;3.21;59.11;102633.66;4965705;28;98526;-83
2024/01/20 00:52:34;;;;;;;54.00;30.85;;;;;;;3.22;58.90;102638.06;4975879;28;98106;-83
2024/01/20 00:55:00;;;;;;;60.72;31.70;;;;;;;3.23;59.28;102637.16;4971787;28;97204;-85
2024/01/20 00:57:27;;;;;;;54.20;29.70;;;;;;;3.22;59.07;102632.75;4955246;28;98401;-84
2024/01/20 00:59:55;;;;;;;56.70;30.55;;;;;;;3.23;59.16;102638.94;4953337;28;97658;-85
2024/01/20 01:02:24;;;;;;;57.45;30.73;;;;;;;3.22;59.16;102631.88;4953296;28;97284;-85
2024/01/20 01:04:51;;;;;;;61.88;31.88;;;;;;;3.19;59.30;102631.03;4932407;28;97502;-84
2024/01/20 01:07:18;;;;;;;61.42;30.67;;;;;;;3.18;59.14;102631.91;4931924;28;98857;-86
2024/01/20 01:09:44;;;;;;;53.20;29.50;;;;;;;3.17;59.24;102624.84;4949870;28;99041;-85
2024/01/20 01:12:11;;;;;;;55.28;29.05;;;;;;;3.18;59.26;102642.53;4964014;28;97397;-87
2024/01/20 01:14:38;;;;;;;58.22;30.92;;;;;;;3.19;59.30;102638.09;4962627;28;98480;-85
2024/01/20 01:17:06;;;;;;;56.67;31.55;;;;;;;3.19;59.24;102628.38;4945224;28;98445;-86
2024/01/20 01:19:32;;;;;;;57.78;30.70;;;;;;;3.20;59.18;102634.56;4973607;28;100402;-86
2024/01/20 01:22:00;;;;;;;55.00;30.63;;;;;;;3.19;59.34;102632.78;4946436;28;97399;-85
2024/01/20 01:24:26;;;;;;;56.50;30.75;;;;;;;3.18;59.22;102639.88;4968590;28;97316;-85
2024/01/20 01:26:53;;;;;;;61.83;30.50;;;;;;;3.19;59.30;102638.97;4946055;28;100402;-85
2024/01/20 01:29:19;;;;;;;57.00;30.58;;;;;;;3.18;59.31;102634.56;4965093;28;98498;-85
2024/01/20 01:31:46;;;;;;;54.25;29.15;;;;;;;3.20;59.21;102637.22;4943884;28;98624;-85
2024/01/20 01:34:13;;;;;;;49.80;29.10;;;;;;;3.22;59.32;102646.03;4929466;28;97589;-85
2024/01/20 01:36:40;;;;;;;61.60;29.13;;;;;;;3.24;59.33;102646.00;4941397;28;97543;-86
2024/01/20 01:39:07;;;;;;;57.70;30.27;;;;;;;3.26;59.35;102644.22;4948979;28;98065;-84
2024/01/20 01:41:34;;;;;;;57.40;30.60;;;;;;;3.25;59.38;102653.09;4948853;28;98409;-84
2024/01/20 01:44:02;;;;;;;54.90;29.58;;;;;;;3.24;59.44;102654.88;4937397;28;97094;-85
2024/01/20 01:46:30;;;;;;;55.40;29.50;;;;;;;3.22;59.30;102663.75;4938308;28;100204;-84
2024/01/20 01:48:57;;;;;;;55.97;28.63;;;;;;;3.19;59.43;102660.22;4941275;28;97787;-84
2024/01/20 01:51:24;;;;;;;57.92;29.52;;;;;;;3.17;59.15;102656.72;4944978;28;97454;-84
2024/01/20 01:53:51;;;;;;;52.15;29.52;;;;;;;3.15;59.38;102663.81;4936721;28;101662;-85
2024/01/20 01:56:19;;;;;;;59.00;31.65;;;;;;;3.16;59.40;102670.00;4944627;28;98128;-85
2024/01/20 01:58:46;;;;;;;51.90;27.70;;;;;;;3.15;59.38;102661.16;4922633;28;97642;-85
2024/01/20 02:01:13;;;;;;;57.30;30.92;;;;;;;3.14;59.31;102666.47;4942807;28;98198;-86
2024/01/20 02:03:40;;;;;;;52.90;29.95;;;;;;;3.15;59.35;102684.16;4938499;28;97502;-85
2024/01/20 02:06:07;;;;;;;52.97;28.50;;;;;;;3.16;59.45;102675.31;4936991;28;97834;-85
2024/01/20 02:08:35;;;;;;;54.97;29.55;;;;;;;3.16;59.51;102681.50;4938529;28;98508;-85
2024/01/20 02:11:02;;;;;;;54.55;26.95;;;;;;;3.16;59.28;102678.84;4942073;28;98004;-85
2024/01/20 02:13:30;;;;;;;53.35;28.38;;;;;;;3.16;59.47;102681.50;4940110;28;97881;-85
2024/01/20 02:15:57;;;;;;;53.42;28.45;;;;;;;3.17;59.49;102688.56;4940109;28;98315;-86
2024/01/20 02:18:24;;;;;;;50.13;27.23;;;;;;;3.16;59.44;102691.25;4940220;28;100228;-85
2024/01/20 02:20:50;;;;;;;49.85;28.80;;;;;;;3.14;59.47;102685.06;4936988;28;97905;-83
2024/01/20 02:23:17;;;;;;;56.67;28.58;;;;;;;3.14;59.50;102682.41;4936356;28;97653;-86
2024/01/20 02:25:46;;;;;;;52.35;28.42;;;;;;;3.13;59.51;102685.97;4929727;28;99994;-85
2024/01/20 02:28:14;;;;;;;47.00;27.63;;;;;;;3.12;59.58;102673.59;4941038;28;98239;-86
2024/01/20 02:30:47;;;;;;;51.67;26.30;;;;;;;3.10;59.44;102678.03;4948530;28;97833;-86
2024/01/20 02:33:21;;;;;;;51.55;27.45;;;;;;;3.10;59.48;102676.25;4957058;28;96872;-85
2024/01/20 02:36:08;;;;;;;49.15;26.98;;;;;;;3.11;59.55;102674.47;4965102;28;96897;-87
2024/01/20 02:38:45;;;;;;;52.22;26.95;;;;;;;3.14;59.47;102682.41;4964051;28;97015;-83
2024/01/20 02:41:12;;;;;;;48.45;26.33;;;;;;;3.14;59.57;102679.75;4944832;28;96845;-83
2024/01/20 02:43:54;;;;;;;50.95;26.00;;;;;;;3.13;59.57;102684.19;4961703;28;98029;-84
2024/01/20 02:46:39;;;;;;;50.53;28.20;;;;;;;3.12;59.57;102685.09;4950623;28;100044;-82
2024/01/20 02:49:12;;;;;;;54.42;28.13;;;;;;;3.12;59.52;102684.22;4933067;28;99604;-84
2024/01/20 02:51:52;;;;;;;48.92;26.83;;;;;;;3.13;59.51;102683.31;4954487;28;97288;-84
2024/01/20 02:54:23;;;;;;;48.72;25.70;;;;;;;3.13;59.66;102702.78;4946215;28;98348;-84
2024/01/20 02:56:53;;;;;;;51.25;26.55;;;;;;;3.12;59.50;102701.00;4969208;28;97691;-83
2024/01/20 02:59:30;;;;;;;47.95;27.40;;;;;;;3.13;59.71;102701.91;4939977;28;97833;-82
2024/01/20 03:02:47;;;;;;;46.70;24.08;;;;;;;3.12;59.52;102692.16;4952533;28;97247;-84
2024/01/20 03:05:14;;;;;;;45.88;24.55;;;;;;;3.11;59.57;102696.59;4923453;28;97868;-84
2024/01/20 03:07:40;;;;;;;52.95;26.77;;;;;;;3.10;59.60;102686.88;4934162;28;100571;-84
2024/01/20 03:10:08;;;;;;;51.10;26.48;;;;;;;3.09;59.53;102695.75;4950009;28;98404;-84
2024/01/20 03:12:34;;;;;;;47.78;25.92;;;;;;;3.06;59.58;102690.47;4968970;28;97655;-84
2024/01/20 03:15:01;;;;;;;50.78;26.00;;;;;;;3.08;59.72;102690.44;4947951;28;97364;-84
2024/01/20 03:17:29;;;;;;;46.30;25.13;;;;;;;3.08;59.60;102691.31;4950248;28;97427;-84
2024/01/20 03:19:56;;;;;;;49.00;25.02;;;;;;;3.08;59.68;102698.41;4949306;28;96869;-84
2024/01/20 03:22:22;;;;;;;45.47;24.08;;;;;;;3.07;59.70;102697.53;4951629;28;97129;-83
2024/01/20 03:24:49;;;;;;;53.35;26.27;;;;;;;3.08;59.64;102711.69;4935952;28;96933;-86
2024/01/20 03:27:19;;;;;;;44.10;23.98;;;;;;;3.09;59.60;102714.31;4947033;28;100403;-84
2024/01/20 03:29:45;;;;;;;42.97;25.42;;;;;;;3.09;59.51;102714.31;4944343;28;97626;-85
2024/01/20 03:32:12;;;;;;;45.85;24.80;;;;;;;3.10;59.75;102717.84;4942487;28;97238;-83
2024/01/20 03:34:39;;;;;;;44.83;23.77;;;;;;;3.07;59.62;102707.25;4959652;28;98648;-84
2024/01/20 03:37:06;;;;;;;47.03;24.42;;;;;;;3.03;59.47;102701.09;4943738;28;98002;-84
2024/01/20 03:39:32;;;;;;;47.80;24.88;;;;;;;3.04;59.64;102708.19;4925294;28;98444;-84
2024/01/20 03:41:59;;;;;;;47.28;24.60;;;;;;;3.03;59.53;102713.50;4943859;28;97198;-85
2024/01/20 03:44:29;;;;;;;42.72;22.77;;;;;;;3.02;59.76;102711.75;4938410;28;96883;-84
2024/01/20 03:46:55;;;;;;;45.30;23.45;;;;;;;3.02;59.67;102704.66;4921797;28;98512;-85
2024/01/20 03:49:22;;;;;;;40.95;24.05;;;;;;;3.02;59.58;102711.75;4939010;28;98950;-84
2024/01/20 03:51:49;;;;;;;51.80;25.50;;;;;;;3.01;59.68;102716.16;4943699;28;97422;-85
2024/01/20 03:54:16;;;;;;;46.00;25.08;;;;;;;3.02;59.59;102715.28;4937954;28;97302;-84
2024/01/20 03:56:45;;;;;;;45.22;22.98;;;;;;;3.02;59.63;102717.06;4940273;28;98144;-84
2024/01/20 03:59:12;;;;;;;45.70;23.67;;;;;;;3.02;59.71;102717.06;4944053;28;100532;-84
2024/01/20 04:01:39;;;;;;;45.78;23.17;;;;;;;2.99;59.70;102717.06;4945498;28;98061;-84
2024/01/20 04:04:06;;;;;;;46.85;24.58;;;;;;;2.96;59.51;102717.97;4947161;28;97462;-84
2024/01/20 04:06:33;;;;;;;42.20;22.95;;;;;;;2.95;59.63;102725.94;4927488;28;98946;-85
2024/01/20 04:09:00;;;;;;;44.70;24.60;;;;;;;2.93;59.66;102720.63;4937346;28;98006;-84
2024/01/20 04:11:27;;;;;;;46.67;23.65;;;;;;;2.94;59.65;102726.81;4926045;28;97336;-84
2024/01/20 04:13:53;;;;;;;47.53;24.42;;;;;;;2.92;59.54;102718.88;4921040;28;98431;-84
2024/01/20 04:16:20;;;;;;;47.58;25.50;;;;;;;2.91;59.64;102719.78;4945551;28;98627;-84
2024/01/20 04:18:47;;;;;;;47.42;24.52;;;;;;;2.93;59.63;102725.06;4945820;28;97840;-85
2024/01/20 04:21:14;;;;;;;41.30;22.45;;;;;;;2.90;59.55;102728.63;4953244;28;98319;-84
2024/01/20 04:23:40;;;;;;;43.10;22.80;;;;;;;2.92;59.69;102731.28;4935872;28;96801;-84
2024/01/20 04:26:07;;;;;;;46.00;23.73;;;;;;;2.93;59.70;102730.38;4926353;28;98589;-84
2024/01/20 04:28:34;;;;;;;40.83;24.25;;;;;;;2.93;59.71;102736.56;4937302;28;99792;-84
2024/01/20 04:31:00;;;;;;;46.08;25.10;;;;;;;2.90;59.53;102731.28;4925615;28;97331;-85
2024/01/20 04:33:27;;;;;;;46.60;26.10;;;;;;;2.87;59.59;102726.00;4935130;28;96932;-84
2024/01/20 04:35:54;;;;;;;46.38;24.00;;;;;;;2.86;59.66;102729.56;4940732;28;98431;-84
2024/01/20 04:38:20;;;;;;;41.55;23.23;;;;;;;2.84;59.53;102726.91;4933527;28;100443;-84
2024/01/20 04:40:47;;;;;;;47.20;23.90;;;;;;;2.84;59.73;102728.69;4925461;28;97646;-84
2024/01/20 04:43:14;;;;;;;46.33;24.17;;;;;;;2.85;59.74;102733.97;4943078;28;97351;-84
2024/01/20 04:45:41;;;;;;;46.60;24.70;;;;;;;2.84;59.69;102729.56;4945946;28;97184;-85
2024/01/20 04:48:08;;;;;;;45.42;23.95;;;;;;;2.85;59.67;102730.44;4946513;28;100218;-83
2024/01/20 04:50:35;;;;;;;46.80;24.23;;;;;;;2.84;59.58;102720.72;4944999;28;98767;-85
2024/01/20 04:53:02;;;;;;;43.95;23.15;;;;;;;2.83;59.73;102730.47;4943475;28;97434;-84
2024/01/20 04:55:29;;;;;;;46.10;23.83;;;;;;;2.82;59.82;102726.03;4942941;28;98669;-83
2024/01/20 04:57:56;;;;;;;49.80;25.48;;;;;;;2.85;59.97;102727.78;4958450;28;97678;-85
2024/01/20 05:00:23;;;;;;;41.90;22.95;;;;;;;2.84;59.90;102736.66;4944474;28;97296;-84
2024/01/20 05:02:50;;;;;;;45.35;23.02;;;;;;;2.87;59.64;102748.13;4953215;28;96922;-85
2024/01/20 05:05:17;;;;;;;46.78;24.05;;;;;;;2.87;59.69;102745.47;4944913;28;101207;-83
2024/01/20 05:07:44;;;;;;;46.60;24.75;;;;;;;2.89;59.77;102750.75;4962244;28;100375;-84
2024/01/20 05:10:11;;;;;;;46.47;24.48;;;;;;;2.88;59.75;102749.00;4949260;28;97780;-84
2024/01/20 05:12:38;;;;;;;43.38;24.60;;;;;;;2.91;59.75;102751.63;4948949;28;98734;-84
2024/01/20 05:15:10;;;;;;;43.80;24.08;;;;;;;2.94;59.75;102759.56;4930625;28;98032;-84
2024/01/20 05:17:37;;;;;;;42.30;23.48;;;;;;;2.95;59.77;102755.13;4943837;28;98558;-84
2024/01/20 05:20:05;;;;;;;42.30;23.98;;;;;;;2.93;59.80;102760.44;4931265;28;97368;-84
2024/01/20 05:22:32;;;;;;;48.60;23.35;;;;;;;2.91;59.87;102764.00;4946123;28;99567;-82
2024/01/20 05:24:59;;;;;;;49.10;24.15;;;;;;;2.90;59.89;102765.78;4930493;28;99254;-84
2024/01/20 05:27:26;;;;;;;45.15;22.55;;;;;;;2.90;59.79;102771.09;4941387;28;98854;-84
2024/01/20 05:29:53;;;;;;;46.58;22.90;;;;;;;2.91;59.92;102771.97;4930788;28;97255;-84
2024/01/20 05:32:20;;;;;;;42.80;23.65;;;;;;;2.92;59.84;102773.72;4961769;28;97180;-83
2024/01/20 05:34:47;;;;;;;44.45;23.08;;;;;;;2.93;59.79;102772.84;4946664;28;99897;-83
2024/01/20 05:37:13;;;;;;;41.75;22.90;;;;;;;2.96;59.93;102778.13;4968517;28;100818;-84
2024/01/20 05:39:40;;;;;;;40.88;22.75;;;;;;;2.99;59.98;102780.78;4945761;28;97197;-84
2024/01/20 05:42:07;;;;;;;40.03;22.75;;;;;;;3.01;60.04;102771.03;4942668;28;97159;-83
2024/01/20 05:44:34;;;;;;;40.78;22.58;;;;;;;3.04;59.93;102776.31;4938366;28;100736;-84
2024/01/20 05:47:00;;;;;;;40.65;21.38;;;;;;;3.03;60.04;102778.09;4939207;28;97582;-84
2024/01/20 05:49:28;;;;;;;42.38;22.50;;;;;;;3.03;59.96;102778.09;4936686;28;97895;-84
2024/01/20 05:51:55;;;;;;;44.10;23.27;;;;;;;3.02;60.08;102775.44;4936086;28;97593;-84
2024/01/20 05:54:24;;;;;;;41.10;22.75;;;;;;;3.02;59.92;102773.66;4953643;28;98556;-84
2024/01/20 05:56:51;;;;;;;44.15;22.42;;;;;;;3.04;60.06;102776.31;4938741;28;100372;-83
2024/01/20 05:59:17;;;;;;;40.65;22.08;;;;;;;3.02;59.92;102773.66;4941925;28;97332;-84
2024/01/20 06:01:50;;;;;;;43.55;23.58;;;;;;;3.04;59.96;102778.97;4957056;28;98583;-84
2024/01/20 06:04:17;;;;;;;42.53;22.77;;;;;;;3.03;59.93;102775.44;4939490;28;98518;-84
2024/01/20 06:06:46;;;;;;;45.03;22.38;;;;;;;3.04;59.98;102777.19;4938121;28;98708;-84
2024/01/20 06:09:13;;;;;;;40.55;22.52;;;;;;;3.05;59.90;102775.41;4942149;28;97405;-85
2024/01/20 06:11:41;;;;;;;38.83;20.77;;;;;;;3.04;59.91;102778.97;4926010;28;97532;-85
2024/01/20 06:14:07;;;;;;;45.88;23.27;;;;;;;3.02;60.02;102783.41;4941260;28;98125;-85
2024/01/20 06:16:38;;;;;;;39.35;21.67;;;;;;;3.02;59.79;102792.25;4921462;28;100511;-85
2024/01/20 06:19:06;;;;;;;36.30;20.40;;;;;;;3.05;60.07;102794.00;4941166;28;97155;-86
2024/01/20 06:21:33;;;;;;;38.10;19.98;;;;;;;3.06;60.06;102807.25;4945084;28;98243;-85
2024/01/20 06:24:00;;;;;;;40.85;21.73;;;;;;;3.05;60.12;102804.59;4943945;28;97184;-85
2024/01/20 06:26:28;;;;;;;37.97;20.55;;;;;;;3.01;60.05;102811.72;4926845;28;99038;-84
2024/01/20 06:28:55;;;;;;;36.05;20.80;;;;;;;3.00;60.03;102809.09;4940698;28;97745;-84
2024/01/20 06:31:28;;;;;;;39.38;21.70;;;;;;;2.98;60.14;102808.22;4941544;28;97165;-84
2024/01/20 06:33:55;;;;;;;40.95;21.25;;;;;;;2.97;60.08;102799.34;4955190;28;97631;-83
2024/01/20 06:36:25;;;;;;;38.80;20.13;;;;;;;2.97;59.97;102801.09;4941015;28;100565;-83
2024/01/20 06:38:52;;;;;;;40.90;20.85;;;;;;;2.96;60.16;102800.22;4940478;28;98756;-83
2024/01/20 06:41:19;;;;;;;35.65;19.67;;;;;;;2.97;60.08;102802.00;4942818;28;98073;-83
2024/01/20 06:43:45;;;;;;;36.90;21.15;;;;;;;2.97;60.13;102796.69;4953325;28;97683;-83
2024/01/20 06:46:12;;;;;;;34.15;20.17;;;;;;;2.97;60.16;102801.09;4943723;28;98128;-83
2024/01/20 06:48:39;;;;;;;36.15;18.92;;;;;;;2.95;59.90;102801.13;4926297;28;97455;-84
2024/01/20 06:51:06;;;;;;;38.47;19.20;;;;;;;2.94;60.27;102809.09;4942775;28;97540;-84
2024/01/20 06:53:33;;;;;;;35.72;18.83;;;;;;;2.95;60.14;102806.44;4927486;28;100194;-83
2024/01/20 06:56:00;;;;;;;35.90;19.85;;;;;;;2.95;60.03;102800.25;4954099;28;100318;-83
2024/01/20 06:58:27;;;;;;;36.72;20.05;;;;;;;2.95;60.32;102802.91;4930072;28;97308;-84
2024/01/20 07:00:53;;;;;;;36.65;19.77;;;;;;;2.94;60.32;102799.38;4946673;28;97312;-83
2024/01/20 07:03:21;;;;;;;34.97;19.15;;;;;;;2.94;60.05;102809.09;4929626;28;98429;-84
2024/01/20 07:05:48;;;;;;;36.60;20.20;;;;;;;2.92;60.12;102810.88;4930937;28;99935;-83
2024/01/20 07:08:15;;;;;;;36.20;19.48;;;;;;;2.91;60.15;102814.44;4934425;28;97516;-84
2024/01/20 07:10:41;;;;;;;36.83;19.52;;;;;;;2.91;60.23;102806.47;4952250;28;97874;-84
2024/01/20 07:13:09;;;;;;;36.25;19.10;;;;;;;2.91;60.11;102811.78;4953832;28;99494;-83
2024/01/20 07:15:35;;;;;;;33.35;19.00;;;;;;;2.88;60.05;102815.34;4955983;28;101337;-84
2024/01/20 07:18:03;;;;;;;34.30;19.40;;;;;;;2.88;60.27;102810.91;4960946;28;97331;-84
2024/01/20 07:20:34;;;;;;;34.70;18.80;;;;;;;2.88;60.29;102818.88;4961687;28;97523;-84
2024/01/20 07:23:00;;;;;;;32.60;17.67;;;;;;;2.88;60.27;102807.38;4922392;28;98201;-83
2024/01/20 07:25:27;;;;;;;34.83;18.63;;;;;;;2.91;60.29;102817.97;4937591;28;97461;-83
2024/01/20 07:27:54;;;;;;;40.85;19.23;;;;;;;2.91;60.25;102822.38;4947117;28;98168;-82
2024/01/20 07:30:21;;;;;;;39.03;20.92;;;;;;;2.90;60.21;102821.50;4941031;28;98997;-83
2024/01/20 07:32:48;;;;;;;38.30;19.92;;;;;;;2.88;60.38;102826.81;4937583;28;98432;-83
2024/01/20 07:35:15;;;;;;;31.15;18.17;;;;;;;2.90;60.16;102820.63;4956230;28;100394;-84
2024/01/20 07:37:41;;;;;;;40.42;18.83;;;;;;;2.90;60.41;102826.81;4939119;28;97705;-85
2024/01/20 07:40:09;;;;;;;34.22;18.83;;;;;;;2.92;60.20;102834.75;4935182;28;99396;-85
2024/01/20 07:42:36;;;;;;;40.03;20.48;;;;;;;2.91;60.44;102830.34;4940584;28;98118;-83
2024/01/20 07:45:03;;;;;;;35.72;19.63;;;;;;;2.93;60.22;102823.25;4934227;28;98898;-84
2024/01/20 07:47:30;;;;;;;40.22;20.83;;;;;;;2.94;60.23;102823.25;4942888;28;97840;-85
2024/01/20 07:49:57;;;;;;;36.88;18.85;;;;;;;2.95;60.20;102824.13;4930893;28;97673;-84
2024/01/20 07:52:24;;;;;;;39.15;20.20;;;;;;;2.95;60.29;102829.44;4939361;28;100384;-84
2024/01/20 07:54:50;;;;;;;34.80;19.92;;;;;;;2.96;60.33;102836.50;4933055;28;98307;-83
2024/01/20 07:57:17;;;;;;;36.72;18.33;;;;;;;2.95;60.16;102829.44;4936119;28;97580;-82
2024/01/20 07:59:44;;;;;;;37.67;19.83;;;;;;;2.94;60.36;102836.50;4936841;28;98183;-79
2024/01/20 08:02:10;;;;;;;35.17;18.58;;;;;;;2.93;60.39;102837.41;4929380;28;100043;-83
2024/01/20 08:04:37;;;;;;;37.75;20.52;;;;;;;2.96;60.34;102842.69;4932152;28;97742;-83
2024/01/20 08:07:04;;;;;;;39.25;19.77;;;;;;;2.97;60.39;102847.09;4930406;28;96989;-82
2024/01/20 08:09:30;;;;;;;38.47;18.38;;;;;;;3.00;60.57;102843.59;4955768;28;98137;-83
2024/01/20 08:11:57;;;;;;;34.55;19.38;;;;;;;3.04;60.51;102850.63;4942295;28;98454;-83
2024/01/20 08:14:24;;;;;;;30.88;19.27;;;;;;;3.07;60.30;102855.91;4937349;28;100029;-80
2024/01/20 08:16:51;;;;;;;36.90;19.67;;;;;;;3.13;60.59;102846.13;4943208;28;97599;-82
2024/01/20 08:19:17;;;;;;;33.55;18.48;;;;;;;3.19;60.54;102853.16;4940719;28;98017;-83
2024/01/20 08:21:44;;;;;;;33.08;19.88;;;;;;;3.23;60.52;102852.25;4946290;28;98031;-83
2024/01/20 08:24:11;;;;;;;31.70;18.83;;;;;;;3.28;60.47;102846.88;4930737;28;98360;-83
2024/01/20 08:26:38;;;;;;;39.63;19.20;;;;;;;3.32;60.63;102846.84;4950939;28;97469;-83
2024/01/20 08:29:06;;;;;;;36.05;19.67;;;;;;;3.37;60.46;102844.16;4933215;28;98017;-83
2024/01/20 08:31:32;;;;;;;35.17;18.77;;;;;;;3.42;60.69;102851.19;4958340;28;98523;-82
2024/01/20 08:34:00;;;;;;;35.63;20.08;;;;;;;3.46;60.51;102844.06;4916530;28;98354;-83
2024/01/20 08:36:26;;;;;;;35.30;19.30;;;;;;;3.49;60.69;102839.59;4954667;28;98184;-83
2024/01/20 08:38:53;;;;;;;35.75;20.00;;;;;;;3.51;60.47;102843.13;4940693;28;97461;-84
2024/01/20 08:41:20;;;;;;;35.67;19.67;;;;;;;3.55;60.60;102836.00;4942355;28;98212;-81
2024/01/20 08:43:47;;;;;;;34.13;20.15;;;;;;;3.60;60.58;102849.22;4943067;28;98089;-82
2024/01/20 08:46:14;;;;;;;37.67;22.05;;;;;;;3.64;60.46;102856.28;4921226;28;97946;-83
2024/01/20 08:48:40;;;;;;;35.05;19.38;;;;;;;3.68;60.66;102853.56;4936932;28;97244;-84
2024/01/20 08:51:08;;;;;;;33.13;19.50;;;;;;;3.72;60.72;102859.75;4950136;28;98481;-84
2024/01/20 08:53:35;;;;;;;34.17;20.13;;;;;;;3.74;60.52;102861.50;4939133;28;98840;-83
2024/01/20 08:56:03;;;;;;;38.55;19.55;;;;;;;3.75;60.73;102857.06;4932313;28;97126;-83
2024/01/20 08:58:30;;;;;;;34.78;20.88;;;;;;;3.77;60.57;102858.81;4943718;28;97018;-83
2024/01/20 09:00:57;;;;;;;34.42;20.58;;;;;;;3.78;60.58;102865.91;4961036;28;99595;-83
2024/01/20 09:03:25;;;;;;;37.55;20.00;;;;;;;3.82;60.69;102882.69;4928890;28;100997;-83
2024/01/20 09:05:52;;;;;;;39.10;21.50;;;;;;;3.82;60.78;102866.75;4938452;28;96942;-83
2024/01/20 09:08:18;;;;;;;33.40;19.95;;;;;;;3.84;60.49;102880.91;4930234;28;98352;-83
2024/01/20 09:10:45;;;;;;;34.53;20.20;;;;;;;3.86;60.60;102886.19;4944029;28;97940;-83
2024/01/20 09:13:12;;;;;;;37.08;20.80;;;;;;;3.87;60.50;102888.84;4943743;28;98334;-83
2024/01/20 09:15:41;;;;;;;36.22;19.38;;;;;;;3.90;60.59;102890.59;4945434;28;96776;-83
2024/01/20 09:18:09;;;;;;;35.63;21.27;;;;;;;3.91;60.49;102884.38;4932296;28;98542;-85
2024/01/20 09:20:36;;;;;;;35.35;20.55;;;;;;;3.92;60.63;102892.31;4946846;28;97893;-87
2024/01/20 09:23:04;;;;;;;33.65;20.45;;;;;;;3.96;60.56;102888.72;4939725;28;100086;-87
2024/01/20 09:25:30;;;;;;;34.08;20.02;;;;;;;3.96;60.53;102883.41;4920581;28;97915;-85
2024/01/20 09:27:57;;;;;;;35.47;19.50;;;;;;;4.01;60.44;102894.88;4931156;28;97065;-85
2024/01/20 09:30:24;;;;;;;35.65;19.30;;;;;;;4.04;60.81;102897.50;4942137;28;98849;-84
2024/01/20 09:32:50;;;;;;;31.60;18.83;;;;;;;4.04;60.55;102897.50;4939009;28;98578;-84
2024/01/20 09:35:17;;;;;;;32.90;20.05;;;;;;;4.08;60.81;102895.69;4945053;28;98959;-85
2024/01/20 09:37:45;;;;;;;34.40;20.10;;;;;;;4.08;60.36;102899.22;4938219;28;97362;-84
2024/01/20 09:40:12;;;;;;;36.90;21.48;;;;;;;4.11;60.50;102901.84;4940414;28;98241;-85
2024/01/20 09:42:39;;;;;;;36.03;20.27;;;;;;;4.13;60.55;102900.06;4943330;28;100143;-87
2024/01/20 09:45:06;;;;;;;36.83;20.33;;;;;;;4.17;60.61;102895.59;4933705;28;97028;-84
2024/01/20 09:47:34;;;;;;;29.77;20.08;;;;;;;4.19;60.66;102898.22;4931973;28;97663;-85
2024/01/20 09:50:04;;;;;;;34.78;19.27;;;;;;;4.19;60.54;102912.41;4927699;28;98197;-84
2024/01/20 09:52:43;;;;;;;34.55;19.48;;;;;;;4.21;60.47;102929.22;4962303;28;100939;-84
2024/01/20 09:55:21;;;;;;;33.55;20.52;;;;;;;4.23;60.50;102924.75;4958086;28;97673;-84
2024/01/20 09:57:49;;;;;;;35.95;19.55;;;;;;;4.28;60.50;102927.38;4938098;28;97953;-84
2024/01/20 10:00:19;;;;;;;37.80;21.55;;;;;;;4.31;60.54;102927.34;4943307;28;101045;-85
2024/01/20 10:02:46;;;;;;;35.65;21.25;;;;;;;4.34;60.62;102928.19;4938144;28;98368;-78
2024/01/20 10:05:14;;;;;;;40.80;20.95;;;;;;;4.36;60.72;102925.50;4943350;28;98002;-83
2024/01/20 10:07:42;;;;;;;35.17;20.27;;;;;;;4.39;60.67;102936.97;4926847;28;96956;-84
2024/01/20 10:10:21;;;;;;;36.35;22.45;;;;;;;4.42;60.52;102928.09;4940355;28;100745;-84
2024/01/20 10:12:53;;;;;;;34.80;20.67;;;;;;;4.45;60.51;102928.94;4929450;28;98271;-87
2024/01/20 10:15:28;;;;;;;34.33;20.20;;;;;;;4.46;60.52;102929.84;4935368;28;97785;-85
2024/01/20 10:18:06;;;;;;;34.85;21.08;;;;;;;4.47;60.50;102931.59;4947346;28;97263;-86
2024/01/20 10:20:35;;;;;;;36.83;20.92;;;;;;;4.47;60.53;102929.81;4963249;28;98543;-86
2024/01/20 10:23:05;;;;;;;36.42;20.95;;;;;;;4.49;60.48;102934.25;4951279;28;98206;-83
2024/01/20 10:25:32;;;;;;;34.67;21.80;;;;;;;4.49;60.48;102937.78;4927085;28;96845;-84
2024/01/20 10:28:01;;;;;;;40.20;21.67;;;;;;;4.49;60.40;102936.91;4941856;28;96947;-84
2024/01/20 10:30:28;;;;;;;36.95;21.00;;;;;;;4.49;60.38;102931.59;4941654;28;98551;-84
2024/01/20 10:32:58;;;;;;;36.40;20.52;;;;;;;4.53;60.52;102930.63;4946152;28;100361;-84
2024/01/20 10:35:36;;;;;;;39.15;21.25;;;;;;;4.52;60.40;102940.41;4936956;28;97195;-83
2024/01/20 10:38:09;;;;;;;35.30;20.42;;;;;;;4.53;60.47;102943.94;4935108;28;97312;-85
2024/01/20 10:40:36;;;;;;;33.78;19.77;;;;;;;4.53;60.37;102941.28;4959023;28;98261;-84
2024/01/20 10:43:13;;;;;;;38.15;22.23;;;;;;;4.54;60.47;102921.75;4941998;28;97163;-85
2024/01/20 10:45:58;;;;;;;34.00;20.45;;;;;;;4.55;60.42;102944.81;4946480;28;97584;-85
2024/01/20 10:48:27;;;;;;;35.13;21.43;;;;;;;4.57;60.36;102945.66;4928111;28;97523;-84
2024/01/20 10:50:59;;;;;;;38.35;21.55;;;;;;;4.60;60.26;102934.97;4942064;28;98213;-85
2024/01/20 10:53:26;;;;;;;32.47;20.92;;;;;;;4.62;60.42;102936.72;4937765;28;99236;-85
2024/01/20 10:55:54;;;;;;;33.15;20.27;;;;;;;4.62;60.26;102939.38;4956286;28;97606;-85
2024/01/20 10:58:37;;;;;;;34.42;19.88;;;;;;;4.65;60.12;102946.44;4961919;28;96807;-86
2024/01/20 11:01:05;;;;;;;34.47;19.42;;;;;;;4.68;60.31;102943.75;4937053;28;100114;-85
2024/01/20 11:03:32;;;;;;;31.25;18.90;;;;;;;4.69;60.16;102950.84;4951310;28;99562;-85
2024/01/20 11:05:59;;;;;;;35.38;20.45;;;;;;;4.69;60.36;102935.75;4942065;28;96822;-86
2024/01/20 11:08:26;;;;;;;33.88;20.83;;;;;;;4.69;60.18;102942.84;4953960;28;96842;-85
2024/01/20 11:10:54;;;;;;;37.90;21.45;;;;;;;4.70;60.23;102939.28;4937498;28;99910;-86
2024/01/20 11:13:26;;;;;;;32.75;20.13;;;;;;;4.69;60.25;102935.75;4943275;28;99266;-89
2024/01/20 11:15:54;;;;;;;34.38;21.38;;;;;;;4.66;60.14;102929.59;4954401;28;97667;-85
2024/01/20 11:18:22;;;;;;;34.35;19.52;;;;;;;4.63;60.16;102927.84;4953694;28;97869;-85
2024/01/20 11:20:57;;;;;;;34.03;20.65;;;;;;;4.61;60.13;102928.75;4953967;28;99344;-85